sensor_id;sensor_type;location;lat;lon;timestamp;P1;durP1;ratioP1;P2;durP2;ratioP2
1831;SDS011;1680;48.106;11.708;2022-10-16T00:02:23;2.47;;;2.10;;
1831;SDS011;1680;48.106;11.708;2022-10-16T00:04:49;2.60;;;1.70;;
1831;SDS011;1680;48.106;11.708;2022-10-16T00:07:16;2.87;;;1.67;;
1831;SDS011;1680;48.106;11.708;2022-10-16T00:09:43;2.20;;;1.90;;
1831;SDS011;1680;48.106;11.708;2022-10-16T00:12:09;2.77;;;1.77;;
1831;SDS011;1680;48.106;11.708;2022-10-16T00:14:37;3.77;;;1.83;;
1831;SDS011;1680;48.106;11.708;2022-10-16T00:17:06;2.47;;;1.70;;
1831;SDS011;1680;48.106;11.708;2022-10-16T00:19:32;2.47;;;1.77;;
1831;SDS011;1680;48.106;11.708;2022-10-16T00:21:59;3.23;;;1.80;;
1831;SDS011;1680;48.106;11.708;2022-10-16T00:24:25;3.10;;;1.70;;
1831;SDS011;1680;48.106;11.708;2022-10-16T00:26:52;1.70;;;1.60;;
1831;SDS011;1680;48.106;11.708;2022-10-16T00:29:19;2.13;;;1.80;;
1831;SDS011;1680;48.106;11.708;2022-10-16T00:31:47;6.70;;;1.90;;
1831;SDS011;1680;48.106;11.708;2022-10-16T00:34:13;2.50;;;2.07;;
1831;SDS011;1680;48.106;11.708;2022-10-16T00:36:40;1.90;;;1.80;;
1831;SDS011;1680;48.106;11.708;2022-10-16T00:39:06;3.70;;;2.10;;
1831;SDS011;1680;48.106;11.708;2022-10-16T00:41:34;3.10;;;1.77;;
1831;SDS011;1680;48.106;11.708;2022-10-16T00:46:48;2.70;;;1.93;;
1831;SDS011;1680;48.106;11.708;2022-10-16T00:49:19;2.33;;;1.80;;
1831;SDS011;1680;48.106;11.708;2022-10-16T00:51:47;2.40;;;1.60;;
1831;SDS011;1680;48.106;11.708;2022-10-16T00:54:15;2.70;;;1.70;;
1831;SDS011;1680;48.106;11.708;2022-10-16T00:56:43;1.83;;;1.60;;
1831;SDS011;1680;48.106;11.708;2022-10-16T00:59:11;2.20;;;1.40;;
1831;SDS011;1680;48.106;11.708;2022-10-16T01:01:40;2.00;;;1.73;;
1831;SDS011;1680;48.106;11.708;2022-10-16T01:04:08;2.10;;;1.67;;
1831;SDS011;1680;48.106;11.708;2022-10-16T01:06:36;3.03;;;1.67;;
1831;SDS011;1680;48.106;11.708;2022-10-16T01:09:11;3.33;;;1.77;;
1831;SDS011;1680;48.106;11.708;2022-10-16T01:11:41;1.97;;;1.47;;
1831;SDS011;1680;48.106;11.708;2022-10-16T01:14:13;2.80;;;1.90;;
1831;SDS011;1680;48.106;11.708;2022-10-16T01:16:44;2.00;;;1.83;;
1831;SDS011;1680;48.106;11.708;2022-10-16T01:19:14;3.43;;;1.87;;
1831;SDS011;1680;48.106;11.708;2022-10-16T01:21:42;3.53;;;1.80;;
1831;SDS011;1680;48.106;11.708;2022-10-16T01:24:12;1.87;;;1.67;;
1831;SDS011;1680;48.106;11.708;2022-10-16T01:29:28;2.97;;;1.80;;
1831;SDS011;1680;48.106;11.708;2022-10-16T01:31:57;2.10;;;1.90;;
1831;SDS011;1680;48.106;11.708;2022-10-16T01:34:28;2.27;;;2.00;;
1831;SDS011;1680;48.106;11.708;2022-10-16T01:37:00;1.90;;;1.80;;
1831;SDS011;1680;48.106;11.708;2022-10-16T01:39:29;1.97;;;1.60;;
1831;SDS011;1680;48.106;11.708;2022-10-16T01:41:58;3.83;;;2.33;;
1831;SDS011;1680;48.106;11.708;2022-10-16T01:44:29;2.40;;;1.50;;
1831;SDS011;1680;48.106;11.708;2022-10-16T01:46:57;2.40;;;1.90;;
1831;SDS011;1680;48.106;11.708;2022-10-16T01:49:25;1.97;;;1.73;;
1831;SDS011;1680;48.106;11.708;2022-10-16T01:51:54;3.23;;;1.87;;
1831;SDS011;1680;48.106;11.708;2022-10-16T01:54:22;2.00;;;1.53;;
1831;SDS011;1680;48.106;11.708;2022-10-16T01:56:49;2.33;;;1.80;;
1831;SDS011;1680;48.106;11.708;2022-10-16T01:59:17;2.23;;;1.60;;
1831;SDS011;1680;48.106;11.708;2022-10-16T02:01:47;2.07;;;1.80;;
1831;SDS011;1680;48.106;11.708;2022-10-16T02:04:15;1.20;;;1.10;;
1831;SDS011;1680;48.106;11.708;2022-10-16T02:06:43;2.37;;;1.40;;
1831;SDS011;1680;48.106;11.708;2022-10-16T02:09:10;2.00;;;1.70;;
1831;SDS011;1680;48.106;11.708;2022-10-16T02:11:36;3.00;;;1.57;;
1831;SDS011;1680;48.106;11.708;2022-10-16T02:14:04;1.87;;;1.50;;
1831;SDS011;1680;48.106;11.708;2022-10-16T02:16:35;2.83;;;1.63;;
1831;SDS011;1680;48.106;11.708;2022-10-16T02:19:04;2.80;;;1.80;;
1831;SDS011;1680;48.106;11.708;2022-10-16T02:21:32;1.70;;;1.60;;
1831;SDS011;1680;48.106;11.708;2022-10-16T02:24:05;2.50;;;1.47;;
1831;SDS011;1680;48.106;11.708;2022-10-16T02:26:35;4.80;;;1.67;;
1831;SDS011;1680;48.106;11.708;2022-10-16T02:29:04;3.00;;;1.70;;
1831;SDS011;1680;48.106;11.708;2022-10-16T02:31:34;1.90;;;1.80;;
1831;SDS011;1680;48.106;11.708;2022-10-16T02:34:02;1.80;;;1.70;;
1831;SDS011;1680;48.106;11.708;2022-10-16T02:36:31;1.60;;;1.50;;
1831;SDS011;1680;48.106;11.708;2022-10-16T02:38:58;1.77;;;1.67;;
1831;SDS011;1680;48.106;11.708;2022-10-16T02:41:26;3.20;;;1.80;;
1831;SDS011;1680;48.106;11.708;2022-10-16T02:43:53;2.20;;;1.47;;
1831;SDS011;1680;48.106;11.708;2022-10-16T02:46:20;2.27;;;1.63;;
1831;SDS011;1680;48.106;11.708;2022-10-16T02:48:47;1.80;;;1.70;;
1831;SDS011;1680;48.106;11.708;2022-10-16T02:51:13;3.70;;;2.17;;
1831;SDS011;1680;48.106;11.708;2022-10-16T02:53:41;4.47;;;1.43;;
1831;SDS011;1680;48.106;11.708;2022-10-16T02:56:08;2.23;;;1.57;;
1831;SDS011;1680;48.106;11.708;2022-10-16T02:58:34;1.93;;;1.70;;
1831;SDS011;1680;48.106;11.708;2022-10-16T03:01:01;1.93;;;1.43;;
1831;SDS011;1680;48.106;11.708;2022-10-16T03:03:28;2.27;;;1.53;;
1831;SDS011;1680;48.106;11.708;2022-10-16T03:05:54;1.57;;;1.40;;
1831;SDS011;1680;48.106;11.708;2022-10-16T03:08:21;2.07;;;1.80;;
1831;SDS011;1680;48.106;11.708;2022-10-16T03:10:51;1.53;;;1.30;;
1831;SDS011;1680;48.106;11.708;2022-10-16T03:13:18;1.60;;;1.50;;
1831;SDS011;1680;48.106;11.708;2022-10-16T03:15:46;2.20;;;1.60;;
1831;SDS011;1680;48.106;11.708;2022-10-16T03:18:12;2.43;;;1.70;;
1831;SDS011;1680;48.106;11.708;2022-10-16T03:20:39;1.97;;;1.70;;
1831;SDS011;1680;48.106;11.708;2022-10-16T03:23:06;3.50;;;1.40;;
1831;SDS011;1680;48.106;11.708;2022-10-16T03:25:33;1.97;;;1.70;;
1831;SDS011;1680;48.106;11.708;2022-10-16T03:28:01;3.20;;;1.50;;
1831;SDS011;1680;48.106;11.708;2022-10-16T03:30:28;1.83;;;1.63;;
1831;SDS011;1680;48.106;11.708;2022-10-16T03:32:54;3.07;;;1.70;;
1831;SDS011;1680;48.106;11.708;2022-10-16T03:35:21;1.57;;;1.47;;
1831;SDS011;1680;48.106;11.708;2022-10-16T03:37:48;1.63;;;1.50;;
1831;SDS011;1680;48.106;11.708;2022-10-16T03:40:14;1.20;;;1.10;;
1831;SDS011;1680;48.106;11.708;2022-10-16T03:42:41;2.07;;;1.50;;
1831;SDS011;1680;48.106;11.708;2022-10-16T03:45:09;2.00;;;1.30;;
1831;SDS011;1680;48.106;11.708;2022-10-16T03:47:36;1.70;;;1.60;;
1831;SDS011;1680;48.106;11.708;2022-10-16T03:50:03;1.70;;;1.60;;
1831;SDS011;1680;48.106;11.708;2022-10-16T03:52:30;1.80;;;1.30;;
1831;SDS011;1680;48.106;11.708;2022-10-16T03:54:57;1.50;;;1.37;;
1831;SDS011;1680;48.106;11.708;2022-10-16T03:57:23;1.93;;;1.43;;
1831;SDS011;1680;48.106;11.708;2022-10-16T03:59:50;1.40;;;1.30;;
1831;SDS011;1680;48.106;11.708;2022-10-16T04:02:18;1.67;;;1.40;;
1831;SDS011;1680;48.106;11.708;2022-10-16T04:04:44;2.30;;;1.70;;
1831;SDS011;1680;48.106;11.708;2022-10-16T04:07:11;1.67;;;1.57;;
1831;SDS011;1680;48.106;11.708;2022-10-16T04:09:38;2.37;;;1.60;;
1831;SDS011;1680;48.106;11.708;2022-10-16T04:12:04;2.07;;;1.40;;
1831;SDS011;1680;48.106;11.708;2022-10-16T04:14:31;1.90;;;1.80;;
1831;SDS011;1680;48.106;11.708;2022-10-16T04:16:57;1.30;;;1.20;;
1831;SDS011;1680;48.106;11.708;2022-10-16T04:19:25;2.17;;;1.50;;
1831;SDS011;1680;48.106;11.708;2022-10-16T04:21:52;1.83;;;1.73;;
1831;SDS011;1680;48.106;11.708;2022-10-16T04:24:19;3.03;;;1.63;;
1831;SDS011;1680;48.106;11.708;2022-10-16T04:26:45;4.90;;;1.60;;
1831;SDS011;1680;48.106;11.708;2022-10-16T04:29:12;2.27;;;1.67;;
1831;SDS011;1680;48.106;11.708;2022-10-16T04:31:38;2.03;;;1.67;;
1831;SDS011;1680;48.106;11.708;2022-10-16T04:34:05;2.43;;;1.60;;
1831;SDS011;1680;48.106;11.708;2022-10-16T04:36:33;1.80;;;1.70;;
1831;SDS011;1680;48.106;11.708;2022-10-16T04:38:59;3.83;;;1.40;;
1831;SDS011;1680;48.106;11.708;2022-10-16T04:41:26;1.97;;;1.87;;
1831;SDS011;1680;48.106;11.708;2022-10-16T04:43:53;2.50;;;1.77;;
1831;SDS011;1680;48.106;11.708;2022-10-16T04:46:19;4.90;;;1.90;;
1831;SDS011;1680;48.106;11.708;2022-10-16T04:48:46;2.00;;;1.70;;
1831;SDS011;1680;48.106;11.708;2022-10-16T04:51:12;2.13;;;1.93;;
1831;SDS011;1680;48.106;11.708;2022-10-16T04:53:40;3.90;;;1.73;;
1831;SDS011;1680;48.106;11.708;2022-10-16T04:56:07;2.57;;;2.00;;
1831;SDS011;1680;48.106;11.708;2022-10-16T04:58:33;2.33;;;1.70;;
1831;SDS011;1680;48.106;11.708;2022-10-16T05:01:00;2.30;;;2.03;;
1831;SDS011;1680;48.106;11.708;2022-10-16T05:03:26;1.70;;;1.60;;
1831;SDS011;1680;48.106;11.708;2022-10-16T05:05:53;1.77;;;1.67;;
1831;SDS011;1680;48.106;11.708;2022-10-16T05:08:20;2.20;;;1.43;;
1831;SDS011;1680;48.106;11.708;2022-10-16T05:10:47;2.63;;;1.90;;
1831;SDS011;1680;48.106;11.708;2022-10-16T05:13:14;2.40;;;2.20;;
1831;SDS011;1680;48.106;11.708;2022-10-16T05:15:41;2.50;;;2.30;;
1831;SDS011;1680;48.106;11.708;2022-10-16T05:18:08;11.60;;;2.57;;
1831;SDS011;1680;48.106;11.708;2022-10-16T05:20:34;2.40;;;2.20;;
1831;SDS011;1680;48.106;11.708;2022-10-16T05:23:01;2.20;;;2.00;;
1831;SDS011;1680;48.106;11.708;2022-10-16T05:25:28;2.30;;;2.10;;
1831;SDS011;1680;48.106;11.708;2022-10-16T05:27:56;2.10;;;1.90;;
1831;SDS011;1680;48.106;11.708;2022-10-16T05:30:22;2.03;;;1.83;;
1831;SDS011;1680;48.106;11.708;2022-10-16T05:32:49;2.30;;;2.10;;
1831;SDS011;1680;48.106;11.708;2022-10-16T05:35:17;1.80;;;1.70;;
1831;SDS011;1680;48.106;11.708;2022-10-16T05:37:43;1.83;;;1.73;;
1831;SDS011;1680;48.106;11.708;2022-10-16T05:40:10;1.90;;;1.80;;
1831;SDS011;1680;48.106;11.708;2022-10-16T05:42:37;2.53;;;2.07;;
1831;SDS011;1680;48.106;11.708;2022-10-16T05:45:06;3.13;;;1.83;;
1831;SDS011;1680;48.106;11.708;2022-10-16T05:47:34;2.30;;;1.70;;
1831;SDS011;1680;48.106;11.708;2022-10-16T05:50:01;2.23;;;2.03;;
1831;SDS011;1680;48.106;11.708;2022-10-16T05:52:29;2.53;;;2.00;;
1831;SDS011;1680;48.106;11.708;2022-10-16T05:54:55;2.23;;;1.80;;
1831;SDS011;1680;48.106;11.708;2022-10-16T05:57:22;3.50;;;1.80;;
1831;SDS011;1680;48.106;11.708;2022-10-16T05:59:48;2.13;;;1.90;;
1831;SDS011;1680;48.106;11.708;2022-10-16T06:02:16;2.40;;;1.77;;
1831;SDS011;1680;48.106;11.708;2022-10-16T06:04:43;2.40;;;2.13;;
1831;SDS011;1680;48.106;11.708;2022-10-16T06:07:09;2.10;;;1.80;;
1831;SDS011;1680;48.106;11.708;2022-10-16T06:09:36;2.40;;;2.20;;
1831;SDS011;1680;48.106;11.708;2022-10-16T06:12:03;2.43;;;2.13;;
1831;SDS011;1680;48.106;11.708;2022-10-16T06:14:29;1.90;;;1.77;;
1831;SDS011;1680;48.106;11.708;2022-10-16T06:16:56;1.90;;;1.80;;
1831;SDS011;1680;48.106;11.708;2022-10-16T06:19:24;1.90;;;1.70;;
1831;SDS011;1680;48.106;11.708;2022-10-16T06:21:51;2.03;;;1.80;;
1831;SDS011;1680;48.106;11.708;2022-10-16T06:24:17;3.30;;;1.80;;
1831;SDS011;1680;48.106;11.708;2022-10-16T06:26:44;2.00;;;1.90;;
1831;SDS011;1680;48.106;11.708;2022-10-16T06:29:10;3.20;;;2.50;;
1831;SDS011;1680;48.106;11.708;2022-10-16T06:31:37;3.27;;;2.30;;
1831;SDS011;1680;48.106;11.708;2022-10-16T06:34:03;2.10;;;2.00;;
1831;SDS011;1680;48.106;11.708;2022-10-16T06:36:35;2.20;;;2.00;;
1831;SDS011;1680;48.106;11.708;2022-10-16T06:39:02;2.47;;;2.27;;
1831;SDS011;1680;48.106;11.708;2022-10-16T06:41:29;2.20;;;2.00;;
1831;SDS011;1680;48.106;11.708;2022-10-16T06:43:56;2.90;;;2.50;;
1831;SDS011;1680;48.106;11.708;2022-10-16T06:46:23;2.20;;;2.00;;
1831;SDS011;1680;48.106;11.708;2022-10-16T06:48:50;2.40;;;2.20;;
1831;SDS011;1680;48.106;11.708;2022-10-16T06:51:17;2.90;;;2.13;;
1831;SDS011;1680;48.106;11.708;2022-10-16T06:53:46;2.40;;;2.10;;
1831;SDS011;1680;48.106;11.708;2022-10-16T06:56:14;3.13;;;2.10;;
1831;SDS011;1680;48.106;11.708;2022-10-16T06:58:41;2.40;;;2.20;;
1831;SDS011;1680;48.106;11.708;2022-10-16T07:01:08;3.47;;;2.50;;
1831;SDS011;1680;48.106;11.708;2022-10-16T07:03:35;2.10;;;2.00;;
1831;SDS011;1680;48.106;11.708;2022-10-16T07:06:02;2.60;;;2.40;;
1831;SDS011;1680;48.106;11.708;2022-10-16T07:08:30;2.63;;;2.37;;
1831;SDS011;1680;48.106;11.708;2022-10-16T07:11:02;2.47;;;2.27;;
1831;SDS011;1680;48.106;11.708;2022-10-16T07:13:28;2.87;;;2.37;;
1831;SDS011;1680;48.106;11.708;2022-10-16T07:15:55;2.40;;;2.20;;
1831;SDS011;1680;48.106;11.708;2022-10-16T07:18:22;2.67;;;2.17;;
1831;SDS011;1680;48.106;11.708;2022-10-16T07:20:51;2.60;;;2.40;;
1831;SDS011;1680;48.106;11.708;2022-10-16T07:23:18;2.83;;;2.10;;
1831;SDS011;1680;48.106;11.708;2022-10-16T07:25:45;2.00;;;1.90;;
1831;SDS011;1680;48.106;11.708;2022-10-16T07:28:13;2.30;;;2.10;;
1831;SDS011;1680;48.106;11.708;2022-10-16T07:30:39;2.43;;;2.23;;
1831;SDS011;1680;48.106;11.708;2022-10-16T07:33:06;2.97;;;2.63;;
1831;SDS011;1680;48.106;11.708;2022-10-16T07:35:32;2.60;;;2.40;;
1831;SDS011;1680;48.106;11.708;2022-10-16T07:37:59;2.20;;;2.00;;
1831;SDS011;1680;48.106;11.708;2022-10-16T07:40:25;6.27;;;1.90;;
1831;SDS011;1680;48.106;11.708;2022-10-16T07:42:53;2.33;;;2.13;;
1831;SDS011;1680;48.106;11.708;2022-10-16T07:45:21;3.40;;;2.10;;
1831;SDS011;1680;48.106;11.708;2022-10-16T07:47:47;2.60;;;2.40;;
1831;SDS011;1680;48.106;11.708;2022-10-16T07:50:14;2.50;;;2.30;;
1831;SDS011;1680;48.106;11.708;2022-10-16T07:52:40;3.80;;;2.07;;
1831;SDS011;1680;48.106;11.708;2022-10-16T07:55:07;2.70;;;2.50;;
1831;SDS011;1680;48.106;11.708;2022-10-16T07:57:34;3.00;;;2.80;;
1831;SDS011;1680;48.106;11.708;2022-10-16T08:00:01;5.53;;;3.03;;
1831;SDS011;1680;48.106;11.708;2022-10-16T08:02:29;4.37;;;2.80;;
1831;SDS011;1680;48.106;11.708;2022-10-16T08:04:55;3.43;;;2.67;;
1831;SDS011;1680;48.106;11.708;2022-10-16T08:07:22;3.10;;;2.47;;
1831;SDS011;1680;48.106;11.708;2022-10-16T08:09:49;4.47;;;2.00;;
1831;SDS011;1680;48.106;11.708;2022-10-16T08:12:15;2.50;;;2.30;;
1831;SDS011;1680;48.106;11.708;2022-10-16T08:14:42;3.27;;;2.63;;
1831;SDS011;1680;48.106;11.708;2022-10-16T08:17:08;2.33;;;2.13;;
1831;SDS011;1680;48.106;11.708;2022-10-16T08:19:36;2.40;;;2.20;;
1831;SDS011;1680;48.106;11.708;2022-10-16T08:22:03;3.03;;;2.23;;
1831;SDS011;1680;48.106;11.708;2022-10-16T08:24:29;2.50;;;2.30;;
1831;SDS011;1680;48.106;11.708;2022-10-16T08:26:57;2.60;;;2.10;;
1831;SDS011;1680;48.106;11.708;2022-10-16T08:29:24;2.63;;;2.43;;
1831;SDS011;1680;48.106;11.708;2022-10-16T08:31:51;4.40;;;2.43;;
1831;SDS011;1680;48.106;11.708;2022-10-16T08:34:17;4.87;;;2.57;;
1831;SDS011;1680;48.106;11.708;2022-10-16T08:36:45;4.03;;;2.10;;
1831;SDS011;1680;48.106;11.708;2022-10-16T08:39:12;2.40;;;2.10;;
1831;SDS011;1680;48.106;11.708;2022-10-16T08:42:04;3.50;;;2.23;;
1831;SDS011;1680;48.106;11.708;2022-10-16T08:44:44;3.53;;;2.10;;
1831;SDS011;1680;48.106;11.708;2022-10-16T08:47:17;2.60;;;2.40;;
1831;SDS011;1680;48.106;11.708;2022-10-16T08:49:47;2.20;;;1.90;;
1831;SDS011;1680;48.106;11.708;2022-10-16T08:52:19;2.70;;;2.40;;
1831;SDS011;1680;48.106;11.708;2022-10-16T08:54:46;2.53;;;2.30;;
1831;SDS011;1680;48.106;11.708;2022-10-16T08:57:14;3.67;;;2.20;;
1831;SDS011;1680;48.106;11.708;2022-10-16T08:59:42;2.57;;;2.37;;
1831;SDS011;1680;48.106;11.708;2022-10-16T09:02:18;4.07;;;2.30;;
1831;SDS011;1680;48.106;11.708;2022-10-16T09:04:52;3.00;;;2.10;;
1831;SDS011;1680;48.106;11.708;2022-10-16T09:07:24;3.00;;;2.33;;
1831;SDS011;1680;48.106;11.708;2022-10-16T09:09:58;2.10;;;1.90;;
1831;SDS011;1680;48.106;11.708;2022-10-16T09:12:28;2.20;;;2.00;;
1831;SDS011;1680;48.106;11.708;2022-10-16T09:15:01;1.97;;;1.87;;
1831;SDS011;1680;48.106;11.708;2022-10-16T09:17:32;2.30;;;2.10;;
1831;SDS011;1680;48.106;11.708;2022-10-16T09:20:04;2.50;;;1.90;;
1831;SDS011;1680;48.106;11.708;2022-10-16T09:22:35;4.07;;;2.40;;
1831;SDS011;1680;48.106;11.708;2022-10-16T09:25:09;2.20;;;2.00;;
1831;SDS011;1680;48.106;11.708;2022-10-16T09:27:36;2.50;;;1.90;;
1831;SDS011;1680;48.106;11.708;2022-10-16T09:30:06;5.60;;;1.87;;
1831;SDS011;1680;48.106;11.708;2022-10-16T09:32:37;2.10;;;2.00;;
1831;SDS011;1680;48.106;11.708;2022-10-16T09:35:04;2.73;;;1.93;;
1831;SDS011;1680;48.106;11.708;2022-10-16T09:37:38;2.17;;;2.00;;
1831;SDS011;1680;48.106;11.708;2022-10-16T09:40:06;1.93;;;1.77;;
1831;SDS011;1680;48.106;11.708;2022-10-16T09:42:34;1.80;;;1.70;;
1831;SDS011;1680;48.106;11.708;2022-10-16T09:45:03;2.30;;;2.10;;
1831;SDS011;1680;48.106;11.708;2022-10-16T09:47:30;2.33;;;1.87;;
1831;SDS011;1680;48.106;11.708;2022-10-16T09:49:57;1.97;;;1.83;;
1831;SDS011;1680;48.106;11.708;2022-10-16T09:52:27;2.37;;;1.80;;
1831;SDS011;1680;48.106;11.708;2022-10-16T09:54:56;2.20;;;2.00;;
1831;SDS011;1680;48.106;11.708;2022-10-16T09:57:23;2.27;;;1.80;;
1831;SDS011;1680;48.106;11.708;2022-10-16T09:59:50;1.97;;;1.87;;
1831;SDS011;1680;48.106;11.708;2022-10-16T10:02:18;1.97;;;1.77;;
1831;SDS011;1680;48.106;11.708;2022-10-16T10:04:48;3.37;;;1.67;;
1831;SDS011;1680;48.106;11.708;2022-10-16T10:07:18;3.47;;;2.00;;
1831;SDS011;1680;48.106;11.708;2022-10-16T10:09:46;2.17;;;1.93;;
1831;SDS011;1680;48.106;11.708;2022-10-16T10:12:18;2.37;;;2.00;;
1831;SDS011;1680;48.106;11.708;2022-10-16T10:14:46;2.70;;;1.63;;
1831;SDS011;1680;48.106;11.708;2022-10-16T10:17:15;2.20;;;2.00;;
1831;SDS011;1680;48.106;11.708;2022-10-16T10:19:43;2.47;;;1.90;;
1831;SDS011;1680;48.106;11.708;2022-10-16T10:22:22;3.57;;;1.60;;
1831;SDS011;1680;48.106;11.708;2022-10-16T10:24:56;2.13;;;2.00;;
1831;SDS011;1680;48.106;11.708;2022-10-16T10:27:25;3.67;;;2.23;;
1831;SDS011;1680;48.106;11.708;2022-10-16T10:29:56;2.33;;;2.10;;
1831;SDS011;1680;48.106;11.708;2022-10-16T10:32:26;3.40;;;2.10;;
1831;SDS011;1680;48.106;11.708;2022-10-16T10:35:05;3.73;;;2.00;;
1831;SDS011;1680;48.106;11.708;2022-10-16T10:40:22;5.17;;;2.07;;
1831;SDS011;1680;48.106;11.708;2022-10-16T10:42:53;1.93;;;1.77;;
1831;SDS011;1680;48.106;11.708;2022-10-16T10:45:24;2.67;;;1.80;;
1831;SDS011;1680;48.106;11.708;2022-10-16T10:50:36;3.43;;;2.10;;
1831;SDS011;1680;48.106;11.708;2022-10-16T10:53:07;2.23;;;1.63;;
1831;SDS011;1680;48.106;11.708;2022-10-16T10:55:37;1.80;;;1.43;;
1831;SDS011;1680;48.106;11.708;2022-10-16T11:00:59;2.17;;;1.97;;
1831;SDS011;1680;48.106;11.708;2022-10-16T11:03:42;2.50;;;1.30;;
1831;SDS011;1680;48.106;11.708;2022-10-16T11:06:12;1.70;;;1.60;;
1831;SDS011;1680;48.106;11.708;2022-10-16T11:08:43;1.60;;;1.50;;
1831;SDS011;1680;48.106;11.708;2022-10-16T11:11:14;1.37;;;1.27;;
1831;SDS011;1680;48.106;11.708;2022-10-16T11:13:43;1.90;;;1.50;;
1831;SDS011;1680;48.106;11.708;2022-10-16T11:16:15;1.30;;;1.20;;
1831;SDS011;1680;48.106;11.708;2022-10-16T11:18:46;1.57;;;1.30;;
1831;SDS011;1680;48.106;11.708;2022-10-16T11:21:14;1.67;;;1.30;;
1831;SDS011;1680;48.106;11.708;2022-10-16T11:23:43;1.90;;;1.20;;
1831;SDS011;1680;48.106;11.708;2022-10-16T11:26:11;1.33;;;1.13;;
1831;SDS011;1680;48.106;11.708;2022-10-16T11:28:42;1.00;;;0.90;;
1831;SDS011;1680;48.106;11.708;2022-10-16T11:31:10;2.20;;;1.20;;
1831;SDS011;1680;48.106;11.708;2022-10-16T11:33:41;1.73;;;1.17;;
1831;SDS011;1680;48.106;11.708;2022-10-16T11:36:11;1.33;;;1.23;;
1831;SDS011;1680;48.106;11.708;2022-10-16T11:38:39;1.50;;;1.40;;
1831;SDS011;1680;48.106;11.708;2022-10-16T11:41:09;2.07;;;1.90;;
1831;SDS011;1680;48.106;11.708;2022-10-16T11:43:39;2.13;;;1.90;;
1831;SDS011;1680;48.106;11.708;2022-10-16T11:46:08;2.33;;;1.33;;
1831;SDS011;1680;48.106;11.708;2022-10-16T11:48:38;1.60;;;1.50;;
1831;SDS011;1680;48.106;11.708;2022-10-16T11:51:08;2.17;;;1.70;;
1831;SDS011;1680;48.106;11.708;2022-10-16T11:53:39;1.60;;;1.30;;
1831;SDS011;1680;48.106;11.708;2022-10-16T11:56:08;3.17;;;1.53;;
1831;SDS011;1680;48.106;11.708;2022-10-16T11:58:39;1.43;;;1.30;;
1831;SDS011;1680;48.106;11.708;2022-10-16T12:01:13;1.50;;;1.40;;
1831;SDS011;1680;48.106;11.708;2022-10-16T12:03:42;1.20;;;1.10;;
1831;SDS011;1680;48.106;11.708;2022-10-16T12:06:16;1.43;;;1.23;;
1831;SDS011;1680;48.106;11.708;2022-10-16T12:08:48;1.53;;;1.43;;
1831;SDS011;1680;48.106;11.708;2022-10-16T12:11:31;1.43;;;1.13;;
1831;SDS011;1680;48.106;11.708;2022-10-16T12:14:04;2.40;;;1.27;;
1831;SDS011;1680;48.106;11.708;2022-10-16T12:16:31;1.60;;;1.30;;
1831;SDS011;1680;48.106;11.708;2022-10-16T12:21:40;2.50;;;1.50;;
1831;SDS011;1680;48.106;11.708;2022-10-16T12:24:18;1.87;;;1.30;;
1831;SDS011;1680;48.106;11.708;2022-10-16T12:26:46;2.10;;;1.50;;
1831;SDS011;1680;48.106;11.708;2022-10-16T12:29:14;1.70;;;1.43;;
1831;SDS011;1680;48.106;11.708;2022-10-16T12:31:43;3.07;;;1.33;;
1831;SDS011;1680;48.106;11.708;2022-10-16T12:34:14;1.30;;;1.20;;
1831;SDS011;1680;48.106;11.708;2022-10-16T12:36:45;4.07;;;1.57;;
1831;SDS011;1680;48.106;11.708;2022-10-16T12:39:16;2.03;;;1.40;;
1831;SDS011;1680;48.106;11.708;2022-10-16T12:41:46;1.40;;;1.30;;
1831;SDS011;1680;48.106;11.708;2022-10-16T12:44:20;2.00;;;1.67;;
1831;SDS011;1680;48.106;11.708;2022-10-16T12:46:48;1.83;;;1.30;;
1831;SDS011;1680;48.106;11.708;2022-10-16T12:49:22;1.50;;;1.40;;
1831;SDS011;1680;48.106;11.708;2022-10-16T12:51:56;1.80;;;1.30;;
1831;SDS011;1680;48.106;11.708;2022-10-16T12:54:25;1.57;;;1.40;;
1831;SDS011;1680;48.106;11.708;2022-10-16T12:56:57;1.23;;;1.13;;
1831;SDS011;1680;48.106;11.708;2022-10-16T12:59:30;2.00;;;1.40;;
1831;SDS011;1680;48.106;11.708;2022-10-16T13:02:07;1.20;;;1.10;;
1831;SDS011;1680;48.106;11.708;2022-10-16T13:04:50;1.23;;;1.13;;
1831;SDS011;1680;48.106;11.708;2022-10-16T13:07:31;1.47;;;1.20;;
1831;SDS011;1680;48.106;11.708;2022-10-16T13:10:02;1.30;;;1.20;;
1831;SDS011;1680;48.106;11.708;2022-10-16T13:12:40;1.30;;;1.10;;
1831;SDS011;1680;48.106;11.708;2022-10-16T13:15:19;1.33;;;1.23;;
1831;SDS011;1680;48.106;11.708;2022-10-16T13:17:51;1.33;;;1.23;;
1831;SDS011;1680;48.106;11.708;2022-10-16T13:20:21;5.20;;;1.40;;
1831;SDS011;1680;48.106;11.708;2022-10-16T13:22:54;1.50;;;1.40;;
1831;SDS011;1680;48.106;11.708;2022-10-16T13:25:28;2.80;;;1.20;;
1831;SDS011;1680;48.106;11.708;2022-10-16T13:27:59;1.50;;;1.30;;
1831;SDS011;1680;48.106;11.708;2022-10-16T13:30:26;1.50;;;1.40;;
1831;SDS011;1680;48.106;11.708;2022-10-16T13:32:55;1.70;;;1.60;;
1831;SDS011;1680;48.106;11.708;2022-10-16T13:35:23;1.50;;;1.40;;
1831;SDS011;1680;48.106;11.708;2022-10-16T13:37:50;1.50;;;1.40;;
1831;SDS011;1680;48.106;11.708;2022-10-16T13:40:20;2.27;;;1.53;;
1831;SDS011;1680;48.106;11.708;2022-10-16T13:42:47;1.43;;;1.33;;
1831;SDS011;1680;48.106;11.708;2022-10-16T13:48:00;1.80;;;1.50;;
1831;SDS011;1680;48.106;11.708;2022-10-16T13:50:27;1.40;;;1.30;;
1831;SDS011;1680;48.106;11.708;2022-10-16T13:53:09;1.30;;;1.20;;
1831;SDS011;1680;48.106;11.708;2022-10-16T13:55:39;1.40;;;1.30;;
1831;SDS011;1680;48.106;11.708;2022-10-16T13:58:07;1.33;;;1.23;;
1831;SDS011;1680;48.106;11.708;2022-10-16T14:00:34;3.00;;;1.30;;
1831;SDS011;1680;48.106;11.708;2022-10-16T14:03:01;1.67;;;1.33;;
1831;SDS011;1680;48.106;11.708;2022-10-16T14:05:29;1.57;;;1.47;;
1831;SDS011;1680;48.106;11.708;2022-10-16T14:07:56;1.57;;;1.33;;
1831;SDS011;1680;48.106;11.708;2022-10-16T14:10:25;1.40;;;1.30;;
1831;SDS011;1680;48.106;11.708;2022-10-16T14:12:56;4.10;;;1.47;;
1831;SDS011;1680;48.106;11.708;2022-10-16T14:15:23;1.93;;;1.50;;
1831;SDS011;1680;48.106;11.708;2022-10-16T14:17:50;1.37;;;1.27;;
1831;SDS011;1680;48.106;11.708;2022-10-16T14:20:18;1.40;;;1.30;;
1831;SDS011;1680;48.106;11.708;2022-10-16T14:22:45;1.30;;;1.20;;
1831;SDS011;1680;48.106;11.708;2022-10-16T14:25:26;1.20;;;1.10;;
1831;SDS011;1680;48.106;11.708;2022-10-16T14:27:57;1.30;;;1.20;;
1831;SDS011;1680;48.106;11.708;2022-10-16T14:30:24;2.20;;;1.23;;
1831;SDS011;1680;48.106;11.708;2022-10-16T14:32:54;1.60;;;1.50;;
1831;SDS011;1680;48.106;11.708;2022-10-16T14:35:22;1.20;;;1.10;;
1831;SDS011;1680;48.106;11.708;2022-10-16T14:37:51;1.70;;;1.43;;
1831;SDS011;1680;48.106;11.708;2022-10-16T14:40:17;1.50;;;1.40;;
1831;SDS011;1680;48.106;11.708;2022-10-16T14:42:45;1.60;;;1.50;;
1831;SDS011;1680;48.106;11.708;2022-10-16T14:45:12;1.60;;;1.50;;
1831;SDS011;1680;48.106;11.708;2022-10-16T14:47:46;1.30;;;1.20;;
1831;SDS011;1680;48.106;11.708;2022-10-16T14:50:14;1.73;;;1.53;;
1831;SDS011;1680;48.106;11.708;2022-10-16T14:52:40;1.30;;;1.20;;
1831;SDS011;1680;48.106;11.708;2022-10-16T14:55:09;1.63;;;1.53;;
1831;SDS011;1680;48.106;11.708;2022-10-16T14:57:35;1.57;;;1.47;;
1831;SDS011;1680;48.106;11.708;2022-10-16T15:00:05;1.40;;;1.30;;
1831;SDS011;1680;48.106;11.708;2022-10-16T15:02:33;1.80;;;1.70;;
1831;SDS011;1680;48.106;11.708;2022-10-16T15:05:05;1.60;;;1.50;;
1831;SDS011;1680;48.106;11.708;2022-10-16T15:07:36;1.47;;;1.37;;
1831;SDS011;1680;48.106;11.708;2022-10-16T15:10:03;2.43;;;1.40;;
1831;SDS011;1680;48.106;11.708;2022-10-16T15:12:30;1.60;;;1.50;;
1831;SDS011;1680;48.106;11.708;2022-10-16T15:14:56;1.50;;;1.40;;
1831;SDS011;1680;48.106;11.708;2022-10-16T15:17:24;1.50;;;1.40;;
1831;SDS011;1680;48.106;11.708;2022-10-16T15:19:51;1.50;;;1.40;;
1831;SDS011;1680;48.106;11.708;2022-10-16T15:22:17;1.43;;;1.33;;
1831;SDS011;1680;48.106;11.708;2022-10-16T15:24:44;1.50;;;1.40;;
1831;SDS011;1680;48.106;11.708;2022-10-16T15:27:10;1.60;;;1.50;;
1831;SDS011;1680;48.106;11.708;2022-10-16T15:29:37;1.60;;;1.50;;